RCSSRCNN

Guest
Details From RCSS - Sungshan
To RCNN - Tainan
Flight Number -
Tags Generated
Created
Modified
Stats Distance 146 nm / 271 km
Max Altitude 0 ft / 0 m
Waypoints 2
Social Downloads 1
Likes 0
Share VATSIM

Download

Looking for another format? Having issues loading an existing format? Contact us
Advertisement - Login to hide

Notes

Generated

Route

RCSS RCNN

ID Type Via Altitude Latitude Longitude Leg Dist Tot Dist Heading (true) Name
O RCSS APT - 0 ft / 0 m 25.07005˚ 121.53962˚ - 0 nm - -
O RCNN APT - 0 ft / 0 m 22.96406˚ 120.20372˚ 146 nm 146 nm 210° / 210° -

Altitude Profile

Advertisement - Login to hide

RCSS

Details ICAO RCSS (TSA)
Name Sungshan
Region Republic of China (Taiwan)
Timezone Asia/Taipei (UTC+8.0)
Stats Elevation 18 ft / 5 m (AMSL)
Location 25.069586° 121.552570°
Runways 1
Magnetic Variation 4.480° W

METAR

RCSS 121430Z 10012KT 9999 -RA FEW009 BKN022 BKN035 17/16 Q1020 NOSIG RMK A3014

Decode

TAF

TAF AMD RCSS 121306Z 1213/1312 10012KT 8000 FEW010 BKN032 BKN060 TEMPO 1213/1216 5000 RA SCT008 BKN020 BKN050 TEMPO 1308/1312 5000 RA FEW008 BKN020 BKN050

Decode

Departure Runways

ID Width Length Bearing (true) Bearing (mag) Surface Threshold Offset Overrun Length
10 197 ft / 60 m 8,566 ft / 2,611 m 92.26° 96.74° Asphalt 0 ft / 0 m 197 ft / 60 m
28 197 ft / 60 m 8,566 ft / 2,611 m 272.27° 276.75° Asphalt 0 ft / 0 m 525 ft / 160 m

RCNN

Details ICAO RCNN (TNN)
Name TAINAN
Region Republic of China (Taiwan)
Timezone Asia/Taipei (UTC+8.0)
Stats Elevation 63 ft / 19 m (AMSL)
Location 22.950403° 120.205792°
Runways 2
Magnetic Variation 3.844° W

METAR

RCNN 121400Z 36008KT 9000 VCSH FEW010 SCT030 BKN060 18/14 Q1017 RMK A3004 VCSH W

Decode

TAF

TAF RCNN 121100Z 1212/1312 36008KT 8000 FEW012 BKN050 TX23/1306Z TN16/1221Z BECMG 1214/1217 36004KT TEMPO 1220/1223 6000 BECMG 1301/1304 36010KT 9999

Decode

Destination Runways

ID Width Length Bearing (true) Bearing (mag) Surface Threshold Offset Overrun Length
18L 148 ft / 45 m 10,078 ft / 3,072 m 178.73° 182.57° Concrete 0 ft / 0 m 1,083 ft / 330 m
18R 148 ft / 45 m 10,018 ft / 3,054 m 178.61° 182.45° Concrete 0 ft / 0 m 502 ft / 153 m
36L 148 ft / 45 m 10,018 ft / 3,054 m 358.61° 2.45° Concrete 0 ft / 0 m 755 ft / 230 m
36R 148 ft / 45 m 10,078 ft / 3,072 m 358.73° 2.57° Concrete 0 ft / 0 m 755 ft / 230 m

Approach Navaids

Runway Type Ident Frequency Range Bearing (true) Bearing (mag) Slope Elevation
36R Localiser ITNN 110.10 MHz 18 nm / 33 km 358.83° 2.68° - 63 ft / 19 m (AMSL)
36R Glidescope ITNN 110.10 MHz 10 nm / 19 km 358.73° 2.57° 3.00° 63 ft / 19 m (AMSL)
36R DME ITNN 110.10 MHz 18 nm / 33 km - - - 63 ft / 19 m (AMSL)